Mary Esther, Florida
Current Conditions -  °F | °C
As of 4:56 AM on Friday 28 Nov 2014 (Local Time) from KQBL Reporting Station
Scattered Clouds Scattered Clouds  
Wind Chill: 35°   Ceiling: Unl
Heat Index: 35°   Visibility: 10mi
Dew Point: 31°   Wind: 2mph
Humidity: 85%   Direction: 350°N
Pressure: 30.41"   Gusts: NA
Location:  30.41°N, 86.66°W
Report Text: KQBL 281056Z AUTO 35002KT 10SM SCT240 02/00 A3041 RMK AO2 SLP304 T00181005
Loading
Personal Weather Stations






























Interactive Weather Map New forecast layout! Learn more

10-Day Weather Forecast

Advertisements
Track Severe Weather on mobile